createdAt,value
2018-07-07T00:00:28.924Z,17.10
2018-07-07T00:02:57.435Z,17.00
2018-07-07T00:05:25.942Z,17.00
2018-07-07T00:07:54.380Z,17.00
2018-07-07T00:10:23.029Z,17.00
2018-07-07T00:12:51.499Z,16.90
2018-07-07T00:15:21.083Z,16.90
2018-07-07T00:17:50.095Z,16.90
2018-07-07T00:20:18.847Z,16.90
2018-07-07T00:22:47.958Z,16.80
2018-07-07T00:25:18.520Z,16.80
2018-07-07T00:27:47.444Z,16.70
2018-07-07T00:36:18.506Z,16.50
2018-07-07T00:38:47.087Z,16.50
2018-07-07T00:43:49.940Z,16.50
2018-07-07T00:46:18.576Z,16.40
2018-07-07T00:48:47.860Z,16.40
2018-07-07T00:51:16.385Z,16.40
2018-07-07T00:53:44.788Z,16.30
2018-07-07T00:56:13.164Z,16.30
2018-07-07T00:58:41.708Z,16.20
2018-07-07T01:18:14.023Z,16.10
2018-07-07T01:20:42.624Z,16.10
2018-07-07T01:23:11.253Z,16.10
2018-07-07T01:25:39.626Z,16.10
2018-07-07T01:42:21.624Z,16.00
2018-07-07T01:44:50.071Z,16.00
2018-07-07T01:47:18.524Z,16.10
2018-07-07T01:49:47.012Z,16.10
2018-07-07T01:52:15.425Z,16.10
2018-07-07T01:54:44.054Z,16.10
2018-07-07T02:00:10.356Z,16.10
2018-07-07T02:02:38.755Z,16.20
2018-07-07T02:05:07.245Z,16.20
2018-07-07T02:07:35.715Z,16.20
2018-07-07T02:27:08.202Z,16.10
2018-07-07T02:35:37.452Z,16.00
2018-07-07T02:38:05.888Z,16.00
2018-07-07T02:40:34.309Z,16.00
2018-07-07T02:43:02.805Z,16.00
2018-07-07T02:45:31.492Z,16.00
2018-07-07T02:47:59.960Z,16.00
2018-07-07T02:50:28.608Z,16.00
2018-07-07T02:52:56.996Z,16.00
2018-07-07T02:55:25.413Z,16.00
2018-07-07T02:57:53.854Z,16.00
2018-07-07T03:17:24.976Z,15.90
2018-07-07T03:19:53.452Z,15.90
2018-07-07T03:22:21.889Z,15.90
2018-07-07T03:24:50.661Z,15.90
2018-07-07T03:38:42.927Z,15.90
2018-07-07T03:41:11.304Z,15.90
2018-07-07T03:43:39.600Z,15.90
2018-07-07T03:46:07.984Z,15.90
2018-07-07T03:48:36.423Z,15.90
2018-07-07T03:51:04.815Z,15.90
2018-07-07T03:53:33.346Z,15.90
2018-07-07T03:56:01.725Z,15.90
2018-07-07T03:58:30.155Z,15.90
2018-07-07T04:00:58.453Z,15.90
2018-07-07T04:03:26.813Z,15.90
2018-07-07T04:05:55.188Z,15.90
2018-07-07T04:08:23.790Z,16.00
2018-07-07T04:10:52.276Z,16.00
2018-07-07T04:13:20.632Z,16.00
2018-07-07T04:15:48.963Z,16.00
2018-07-07T04:18:25.553Z,16.00
2018-07-07T04:20:53.920Z,16.00
2018-07-07T04:23:22.288Z,16.00
2018-07-07T04:25:53.660Z,16.00
2018-07-07T04:28:22.120Z,16.00
2018-07-07T04:30:50.504Z,16.10
2018-07-07T04:33:18.819Z,16.10
2018-07-07T04:35:47.624Z,16.10
2018-07-07T04:38:16.227Z,16.10
2018-07-07T04:40:44.860Z,16.10
2018-07-07T04:43:13.361Z,16.10
2018-07-07T04:45:41.731Z,16.20
2018-07-07T04:48:10.198Z,16.20
2018-07-07T04:50:38.540Z,16.20
2018-07-07T04:53:06.994Z,16.30
2018-07-07T04:55:35.406Z,16.30
2018-07-07T04:58:03.840Z,16.30
2018-07-07T05:00:50.376Z,16.40
2018-07-07T05:03:18.721Z,16.40
2018-07-07T05:05:47.142Z,16.40
2018-07-07T05:08:15.672Z,16.50
2018-07-07T05:10:44.693Z,16.50
2018-07-07T05:21:56.595Z,16.60
2018-07-07T05:24:25.160Z,16.60
2018-07-07T05:26:53.796Z,16.70
2018-07-07T05:29:22.161Z,16.70
2018-07-07T05:31:50.533Z,16.80
2018-07-07T05:34:18.805Z,16.80
2018-07-07T05:36:47.174Z,16.90
2018-07-07T05:39:15.838Z,17.00
2018-07-07T05:41:44.188Z,17.10
2018-07-07T05:50:14.927Z,17.40
2018-07-07T05:52:43.262Z,17.40
2018-07-07T06:09:40.243Z,17.90
2018-07-07T06:12:09.173Z,18.00
2018-07-07T06:14:37.529Z,18.10
2018-07-07T06:17:05.907Z,18.20
2018-07-07T06:19:34.240Z,18.30
2018-07-07T06:22:02.602Z,18.40
2018-07-07T06:24:31.032Z,18.40
2018-07-07T06:26:59.800Z,18.50
2018-07-07T06:29:28.116Z,18.60
2018-07-07T06:31:56.412Z,18.60
2018-07-07T06:34:24.912Z,18.70
2018-07-07T06:36:53.271Z,18.80
2018-07-07T06:39:21.667Z,18.80
2018-07-07T06:41:50.284Z,18.90
2018-07-07T06:44:18.648Z,19.00
2018-07-07T06:46:47.065Z,19.10
2018-07-07T06:49:16.414Z,19.20
2018-07-07T06:51:44.880Z,19.30
2018-07-07T06:54:15.200Z,19.30
2018-07-07T06:56:43.763Z,19.40
2018-07-07T06:59:12.298Z,19.50
2018-07-07T07:01:41.088Z,19.70
2018-07-07T07:04:09.892Z,19.80
2018-07-07T07:06:38.383Z,19.80
2018-07-07T07:09:12.144Z,19.80
2018-07-07T07:11:50.904Z,19.90
2018-07-07T07:14:25.023Z,20.00
2018-07-07T07:17:10.264Z,20.00
2018-07-07T07:22:45.578Z,20.00
2018-07-07T07:25:14.140Z,20.10
2018-07-07T07:27:42.680Z,20.20
2018-07-07T07:41:36.531Z,20.90
2018-07-07T07:44:05.030Z,21.00
2018-07-07T07:46:33.664Z,21.10
2018-07-07T07:49:02.152Z,21.20
2018-07-07T07:51:30.705Z,21.30
2018-07-07T07:53:59.275Z,21.40
2018-07-07T07:56:28.460Z,21.40
2018-07-07T08:10:33.654Z,21.80
2018-07-07T08:13:02.111Z,21.90
2018-07-07T08:15:30.526Z,22.00
2018-07-07T08:17:58.924Z,22.10
2018-07-07T08:20:30.427Z,22.20
2018-07-07T08:22:59.121Z,22.30
2018-07-07T08:25:28.349Z,22.40
2018-07-07T08:27:57.169Z,22.50
2018-07-07T08:30:25.527Z,22.50
2018-07-07T08:32:53.892Z,22.60
2018-07-07T08:35:22.212Z,22.60
2018-07-07T08:37:50.889Z,22.70
2018-07-07T08:40:19.401Z,22.80
2018-07-07T08:42:48.257Z,22.90
2018-07-07T08:45:16.780Z,23.10
2018-07-07T08:47:45.292Z,23.20
2018-07-07T08:50:13.917Z,23.30
2018-07-07T08:52:42.389Z,23.30
2018-07-07T08:55:10.908Z,23.30
2018-07-07T08:57:39.776Z,23.30
2018-07-07T09:00:08.206Z,23.30
2018-07-07T09:02:36.830Z,23.30
2018-07-07T09:05:09.592Z,23.30
2018-07-07T09:07:39.879Z,23.40
2018-07-07T09:12:43.371Z,23.60
2018-07-07T09:15:11.978Z,23.60
2018-07-07T09:17:40.469Z,23.70
2018-07-07T09:20:12.484Z,23.80
2018-07-07T09:22:41.018Z,23.80
2018-07-07T09:25:09.489Z,23.90
2018-07-07T09:27:38.119Z,24.00
2018-07-07T09:30:06.655Z,24.00
2018-07-07T09:32:35.593Z,24.10
2018-07-07T09:35:05.387Z,24.20
2018-07-07T09:37:33.915Z,24.20
2018-07-07T09:40:08.060Z,24.30
2018-07-07T09:42:36.572Z,24.30
2018-07-07T09:45:05.036Z,24.40
2018-07-07T10:04:36.561Z,24.90
2018-07-07T10:07:05.208Z,25.00
2018-07-07T10:09:33.931Z,25.00
2018-07-07T10:12:02.636Z,25.00
2018-07-07T10:14:31.376Z,25.10
2018-07-07T10:17:00.108Z,25.20
2018-07-07T10:19:28.681Z,25.30
2018-07-07T10:21:57.234Z,25.40
2018-07-07T10:24:32.818Z,25.50
2018-07-07T10:27:05.931Z,25.50
2018-07-07T10:29:37.958Z,25.50
2018-07-07T10:32:07.114Z,25.60
2018-07-07T10:34:38.444Z,25.70
2018-07-07T10:54:52.244Z,26.10
2018-07-07T10:57:24.917Z,26.10
2018-07-07T10:59:54.017Z,26.20
2018-07-07T11:02:22.973Z,26.20
2018-07-07T11:04:51.769Z,26.20
2018-07-07T11:16:13.869Z,26.60
2018-07-07T11:18:42.497Z,26.80
2018-07-07T11:38:15.161Z,26.80
2018-07-07T11:40:43.737Z,26.80
2018-07-07T11:43:14.544Z,26.90
2018-07-07T11:45:43.410Z,27.10
2018-07-07T12:05:19.769Z,27.70
2018-07-07T12:08:00.500Z,27.80
2018-07-07T12:10:18.945Z,27.80
2018-07-07T12:12:49.110Z,27.80
2018-07-07T12:15:47.772Z,27.80
2018-07-07T12:35:31.871Z,28.30
2018-07-07T12:55:11.027Z,28.20
2018-07-07T13:00:44.385Z,28.40
2018-07-07T13:03:12.837Z,28.50
2018-07-07T13:05:42.230Z,28.50
2018-07-07T13:08:11.133Z,28.50
2018-07-07T13:10:41.451Z,28.60
2018-07-07T13:13:10.325Z,28.70
2018-07-07T13:15:39.080Z,28.90
2018-07-07T13:35:14.383Z,28.70
2018-07-07T13:37:44.106Z,28.60
2018-07-07T13:40:17.839Z,28.60
2018-07-07T14:11:38.770Z,29.30
2018-07-07T14:24:37.874Z,29.10
2018-07-07T14:27:13.369Z,29.10
2018-07-07T14:47:00.068Z,29.00
2018-07-07T14:49:46.420Z,29.20
2018-07-07T14:55:42.236Z,29.30
2018-07-07T14:58:11.458Z,29.30
2018-07-07T15:09:19.105Z,29.40
2018-07-07T15:11:51.353Z,29.30
2018-07-07T15:23:39.029Z,29.30
2018-07-07T15:26:08.021Z,28.80
2018-07-07T15:28:36.952Z,28.60
2018-07-07T15:31:11.213Z,28.60
2018-07-07T15:33:39.770Z,28.60
2018-07-07T15:36:11.141Z,28.60
2018-07-07T15:38:40.862Z,28.60
2018-07-07T15:41:14.316Z,28.50
2018-07-07T15:46:24.446Z,28.70
2018-07-07T15:48:58.049Z,28.90
2018-07-07T15:51:28.789Z,29.10
2018-07-07T15:53:58.312Z,29.20
2018-07-07T15:56:31.540Z,29.30
2018-07-07T16:02:01.693Z,29.60
2018-07-07T16:04:31.700Z,29.70
2018-07-07T16:07:00.527Z,29.60
2018-07-07T16:09:30.324Z,29.50
2018-07-07T16:12:01.827Z,29.60
2018-07-07T16:14:36.915Z,29.60
2018-07-07T16:34:10.315Z,30.10
2018-07-07T16:53:43.381Z,29.90
2018-07-07T16:56:11.912Z,29.90
2018-07-07T16:58:40.467Z,29.90
2018-07-07T17:01:09.055Z,30.10
2018-07-07T17:03:45.970Z,30.10
2018-07-07T17:06:16.163Z,30.30
2018-07-07T17:08:54.612Z,30.50
2018-07-07T17:11:23.031Z,30.30
2018-07-07T17:13:51.666Z,30.00
2018-07-07T17:16:20.108Z,29.70
2018-07-07T17:18:48.827Z,29.50
2018-07-07T17:21:17.638Z,29.20
2018-07-07T17:23:47.959Z,28.80
2018-07-07T17:26:16.851Z,28.60
2018-07-07T17:28:50.192Z,28.60
2018-07-07T17:31:18.985Z,28.40
2018-07-07T17:33:49.520Z,28.30
2018-07-07T17:41:18.887Z,28.20
2018-07-07T17:43:49.311Z,28.00
2018-07-07T17:46:18.298Z,27.50
2018-07-07T17:48:48.417Z,27.30
2018-07-07T17:54:06.604Z,27.10
2018-07-07T18:02:23.283Z,26.60
2018-07-07T18:04:52.567Z,26.50
2018-07-07T18:27:29.221Z,25.80
2018-07-07T18:29:58.568Z,25.60
2018-07-07T18:32:35.476Z,25.50
2018-07-07T18:35:04.989Z,25.40
2018-07-07T18:54:36.340Z,24.80
2018-07-07T18:57:06.334Z,24.70
2018-07-07T18:59:35.167Z,24.60
2018-07-07T19:02:05.404Z,24.50
2018-07-07T19:04:34.354Z,24.40
2018-07-07T19:07:03.446Z,24.40
2018-07-07T19:09:32.533Z,24.30
2018-07-07T19:12:02.172Z,24.20
2018-07-07T19:14:31.224Z,24.10
2018-07-07T19:16:59.894Z,24.10
2018-07-07T19:19:28.775Z,24.00
2018-07-07T19:22:03.606Z,24.00
2018-07-07T19:33:03.452Z,23.70
2018-07-07T19:35:37.265Z,23.60
2018-07-07T19:38:06.243Z,23.50
2018-07-07T19:40:35.282Z,23.40
2018-07-07T19:43:04.164Z,23.40
2018-07-07T19:45:33.229Z,23.30
2018-07-07T19:48:02.082Z,23.30
2018-07-07T19:50:31.408Z,23.20
2018-07-07T19:53:01.255Z,23.20
2018-07-07T19:55:30.826Z,23.10
2018-07-07T19:57:59.480Z,23.00
2018-07-07T20:00:30.121Z,22.90
2018-07-07T20:02:58.844Z,22.80
2018-07-07T20:05:33.204Z,22.70
2018-07-07T20:25:17.324Z,22.10
2018-07-07T20:27:51.566Z,22.00
2018-07-07T20:30:26.079Z,21.90
2018-07-07T20:32:55.574Z,21.90
2018-07-07T20:35:25.673Z,21.80
2018-07-07T20:55:00.216Z,21.20
2018-07-07T20:57:28.844Z,21.10
2018-07-07T20:59:58.129Z,21.10
2018-07-07T21:19:36.289Z,20.60
2018-07-07T21:22:05.793Z,20.60
2018-07-07T21:24:34.426Z,20.60
2018-07-07T21:27:03.194Z,20.50
2018-07-07T21:29:31.925Z,20.50
2018-07-07T21:32:01.733Z,20.40
2018-07-07T21:51:33.217Z,20.00
2018-07-07T21:56:36.416Z,20.00
2018-07-07T21:59:10.260Z,19.90
2018-07-07T22:01:59.948Z,19.80
2018-07-07T22:04:34.683Z,19.80
2018-07-07T22:24:06.017Z,19.40
2018-07-07T22:26:34.745Z,19.40
2018-07-07T22:29:04.388Z,19.40
2018-07-07T22:48:39.065Z,18.90
2018-07-07T22:51:08.232Z,18.80
2018-07-07T22:53:36.958Z,18.80
2018-07-07T23:13:08.184Z,18.50
2018-07-07T23:15:36.972Z,18.40
2018-07-07T23:18:06.260Z,18.30
2018-07-07T23:20:35.163Z,18.30
2018-07-07T23:23:04.050Z,18.20
2018-07-07T23:25:32.691Z,18.20
2018-07-07T23:28:01.508Z,18.20
2018-07-07T23:30:30.218Z,18.10
2018-07-07T23:50:02.070Z,17.70
2018-07-07T23:52:30.927Z,17.60
2018-07-07T23:54:59.731Z,17.60
2018-07-07T23:57:28.409Z,17.50
2018-07-07T23:59:57.797Z,17.50
